Bornholm — C4KF2 — position and weather

sailwx.info

Track history (hours):
 
Tides and Currents Weather Stations Pressure Air Temp Water Temp Dewpoint Dewpoint Depression Visibility Wind Speed Wind Dir Waves Ship Positions

Bornholm

Last reported at 2015-Apr-18 14:26 UTC. Time now 2015-Apr-18 15:16 UTC.
Position N 59°24' E 005°16'.

Length 118 m; draft 7.3 m.

Type: Cargo ship. MMSI: 212521000.

Date/timePositionNaut miles runAvg speedWind from/ knotsBaromVisibWave heightAir tempDewpointWater temp
2015-Apr-18 14:26N 59°24' E 005°16'0 0.0
2015-Apr-18 11:32N 59°24' E 005°16'0 0.0
2015-Apr-18 08:31N 59°24' E 005°16'10 7.1
2015-Apr-18 07:09N 59°15' E 005°21'710.9
2015-Apr-18 06:32N 59°08' E 005°21'1010.5
2015-Apr-18 05:32N 58°59' E 005°10'1211.7
2015-Apr-18 04:33N 58°48' E 005°07'38111.5
2015-Apr-16 19:33N 52°36' E 002°39'3410.7
2015-Apr-16 16:21N 52°02' E 002°37'1011.8
2015-Apr-16 15:32N 51°52' E 002°36'1111.4
2015-Apr-16 14:33N 51°42' E 002°28'1212.5
2015-Apr-16 13:33N 51°32' E 002°17'1312.8
2015-Apr-16 12:33N 51°21' E 002°08'1212.2
2015-Apr-16 11:34N 51°11' E 001°55'1414.0
2015-Apr-16 10:33N 51°02' E 001°37'11112.3
2015-Apr-16 01:33N 50°09' W 000°56'1310.0
2015-Apr-16 00:12N 50°06' W 001°16'6 9.3
2015-Apr-15 23:31N 50°04' W 001°26'9 9.3
2015-Apr-15 22:32N 50°02' W 001°40'10 9.9
2015-Apr-15 21:33N 49°59' W 001°54'1110.9
2015-Apr-15 20:33N 49°55' W 002°10'1212.5
2015-Apr-15 19:33N 49°52' W 002°29'15212.7
2015-Apr-15 07:33N 48°34' W 005°48'58112.0
2015-Apr-13 07:07N 39°21' W 009°52'712.4
2015-Apr-13 06:33N 39°14' W 009°52'1212.4
2015-Apr-13 05:33N 39°02' W 009°52'1212.2
2015-Apr-13 04:32N 38°49' W 009°52'1211.8
2015-Apr-13 03:33N 38°38' W 009°50'1211.9
2015-Apr-13 02:33N 38°26' W 009°46'1211.8
2015-Apr-13 01:33N 38°15' W 009°42'1211.7
2015-Apr-13 00:33N 38°03' W 009°39'1211.6
2015-Apr-12 23:33N 37°52' W 009°35'1111.4
2015-Apr-12 22:33N 37°41' W 009°32'1211.6
2015-Apr-12 21:32N 37°29' W 009°29'1211.7
2015-Apr-12 20:33N 37°18' W 009°25'1411.4
2015-Apr-12 19:22N 37°05' W 009°21'2411.1
2015-Apr-12 17:11N 36°45' W 009°05'912.0
2015-Apr-12 16:28N 36°43' W 008°54'1112.1
2015-Apr-12 15:33N 36°40' W 008°41'1512.1
2015-Apr-12 14:21N 36°36' W 008°23'1012.1
2015-Apr-12 13:33N 36°33' W 008°12'13912.6
2015-Apr-12 02:33N 36°01' W 005°25'1211.3
2015-Apr-12 01:32N 35°60' W 005°10'  
Track history (hours):
 
Tides and Currents Weather Stations Pressure Air Temp Water Temp Dewpoint Dewpoint Depression Visibility Wind Speed Wind Dir Waves Ship Positions

Bornholm

Last reported at 2015-Apr-18 14:26 UTC. Time now 2015-Apr-18 15:16 UTC.
Position N 59°24' E 005°16'.

Length 118 m; draft 7.3 m.

Type: Cargo ship. MMSI: 212521000.

Date/timePositionNaut miles runAvg speedWind from/ knotsBaromVisibWave heightAir tempDewpointWater temp
2015-Apr-18 14:26N 59°24' E 005°16'0 0.0
2015-Apr-18 11:32N 59°24' E 005°16'0 0.0
2015-Apr-18 08:31N 59°24' E 005°16'10 7.1
2015-Apr-18 07:09N 59°15' E 005°21'710.9
2015-Apr-18 06:32N 59°08' E 005°21'1010.5
2015-Apr-18 05:32N 58°59' E 005°10'1211.7
2015-Apr-18 04:33N 58°48' E 005°07'38111.5
2015-Apr-16 19:33N 52°36' E 002°39'3410.7
2015-Apr-16 16:21N 52°02' E 002°37'1011.8
2015-Apr-16 15:32N 51°52' E 002°36'1111.4
2015-Apr-16 14:33N 51°42' E 002°28'1212.5
2015-Apr-16 13:33N 51°32' E 002°17'1312.8
2015-Apr-16 12:33N 51°21' E 002°08'1212.2
2015-Apr-16 11:34N 51°11' E 001°55'1414.0
2015-Apr-16 10:33N 51°02' E 001°37'11112.3
2015-Apr-16 01:33N 50°09' W 000°56'1310.0
2015-Apr-16 00:12N 50°06' W 001°16'6 9.3
2015-Apr-15 23:31N 50°04' W 001°26'9 9.3
2015-Apr-15 22:32N 50°02' W 001°40'10 9.9
2015-Apr-15 21:33N 49°59' W 001°54'1110.9
2015-Apr-15 20:33N 49°55' W 002°10'1212.5
2015-Apr-15 19:33N 49°52' W 002°29'15212.7
2015-Apr-15 07:33N 48°34' W 005°48'58112.0
2015-Apr-13 07:07N 39°21' W 009°52'712.4
2015-Apr-13 06:33N 39°14' W 009°52'1212.4
2015-Apr-13 05:33N 39°02' W 009°52'1212.2
2015-Apr-13 04:32N 38°49' W 009°52'1211.8
2015-Apr-13 03:33N 38°38' W 009°50'1211.9
2015-Apr-13 02:33N 38°26' W 009°46'1211.8
2015-Apr-13 01:33N 38°15' W 009°42'1211.7
2015-Apr-13 00:33N 38°03' W 009°39'1211.6
2015-Apr-12 23:33N 37°52' W 009°35'1111.4
2015-Apr-12 22:33N 37°41' W 009°32'1211.6
2015-Apr-12 21:32N 37°29' W 009°29'1211.7
2015-Apr-12 20:33N 37°18' W 009°25'1411.4
2015-Apr-12 19:22N 37°05' W 009°21'2411.1
2015-Apr-12 17:11N 36°45' W 009°05'912.0
2015-Apr-12 16:28N 36°43' W 008°54'1112.1
2015-Apr-12 15:33N 36°40' W 008°41'1512.1
2015-Apr-12 14:21N 36°36' W 008°23'1012.1
2015-Apr-12 13:33N 36°33' W 008°12'13912.6
2015-Apr-12 02:33N 36°01' W 005°25'1211.3
2015-Apr-12 01:32N 35°60' W 005°10'  

Dump ship's entire track history